San Antonio, Texas
Traffic Map
Current Weather Conditions
San Antonio, Texas
Overcast
Overcast
45°
Feels Like: 39°
Wind Chill: 39° Ceiling: 1100
Heat Index: 45° Visibility: 10mi
Dew Point: 41° Wind: 12mph
Humidity: 86% Direction: 10° (N)
Pressure: 30.21in Gusts: 0mph
Raw Report DataKSAT 220451Z 01010KT 10SM OVC011 07/05 A3021 RMK AO2 SLP223 T00720050 $
Traffic Incident Summary
Active as of:
Severity:
Category:
InformationThere was an issue retrieving the traffic information for this location. Please try a different location or try again shortly.
Advertisements